sensor_id;sensor_type;location;lat;lon;timestamp;pressure;altitude;pressure_sealevel;temperature;humidity
75497;BME280;64074;47.540;19.072;2023-11-22T00:02:27;100405.78;;;5.74;88.27
75497;BME280;64074;47.540;19.072;2023-11-22T00:05:50;100404.13;;;5.68;88.36
75497;BME280;64074;47.540;19.072;2023-11-22T00:09:01;100407.63;;;5.68;87.74
75497;BME280;64074;47.540;19.072;2023-11-22T00:12:16;100411.38;;;5.67;88.46
75497;BME280;64074;47.540;19.072;2023-11-22T00:15:49;100418.91;;;5.65;88.32
75497;BME280;64074;47.540;19.072;2023-11-22T00:19:03;100431.25;;;5.61;88.56
75497;BME280;64074;47.540;19.072;2023-11-22T00:22:21;100431.75;;;5.53;88.85
75497;BME280;64074;47.540;19.072;2023-11-22T00:25:58;100435.75;;;5.50;88.07
75497;BME280;64074;47.540;19.072;2023-11-22T00:29:38;100435.28;;;5.59;88.44
75497;BME280;64074;47.540;19.072;2023-11-22T00:32:47;100438.22;;;5.57;88.23
75497;BME280;64074;47.540;19.072;2023-11-22T00:36:20;100442.78;;;5.56;87.82
75497;BME280;64074;47.540;19.072;2023-11-22T00:39:44;100440.63;;;5.53;87.85
75497;BME280;64074;47.540;19.072;2023-11-22T00:42:58;100431.75;;;5.53;87.82
75497;BME280;64074;47.540;19.072;2023-11-22T00:46:26;100429.59;;;5.50;87.71
75497;BME280;64074;47.540;19.072;2023-11-22T00:49:42;100431.47;;;5.49;87.55
75497;BME280;64074;47.540;19.072;2023-11-22T00:52:50;100439.81;;;5.53;88.17
75497;BME280;64074;47.540;19.072;2023-11-22T00:56:03;100438.97;;;5.47;87.69
75497;BME280;64074;47.540;19.072;2023-11-22T00:59:15;100437.34;;;5.46;87.15
75497;BME280;64074;47.540;19.072;2023-11-22T01:02:23;100434.16;;;5.49;87.62
75497;BME280;64074;47.540;19.072;2023-11-22T01:05:37;100433.84;;;5.46;88.37
75497;BME280;64074;47.540;19.072;2023-11-22T01:08:54;100438.09;;;5.42;88.02
75497;BME280;64074;47.540;19.072;2023-11-22T01:12:00;100441.25;;;5.29;88.71
75497;BME280;64074;47.540;19.072;2023-11-22T01:15:14;100444.56;;;5.41;88.36
75497;BME280;64074;47.540;19.072;2023-11-22T01:18:25;100452.56;;;5.31;87.95
75497;BME280;64074;47.540;19.072;2023-11-22T01:21:45;100444.84;;;5.44;87.30
75497;BME280;64074;47.540;19.072;2023-11-22T01:25:03;100451.09;;;5.18;87.58
75497;BME280;64074;47.540;19.072;2023-11-22T01:28:20;100454.72;;;5.34;87.04
75497;BME280;64074;47.540;19.072;2023-11-22T01:31:51;100462.81;;;5.39;86.97
75497;BME280;64074;47.540;19.072;2023-11-22T01:35:21;100460.91;;;5.34;87.06
75497;BME280;64074;47.540;19.072;2023-11-22T01:38:31;100470.97;;;5.49;86.29
75497;BME280;64074;47.540;19.072;2023-11-22T01:41:55;100462.00;;;5.38;86.69
75497;BME280;64074;47.540;19.072;2023-11-22T01:45:20;100455.84;;;5.43;86.27
75497;BME280;64074;47.540;19.072;2023-11-22T01:48:32;100461.59;;;5.51;85.54
75497;BME280;64074;47.540;19.072;2023-11-22T01:51:47;100468.31;;;5.54;85.43
75497;BME280;64074;47.540;19.072;2023-11-22T01:55:01;100474.19;;;5.46;85.99
75497;BME280;64074;47.540;19.072;2023-11-22T01:58:29;100476.88;;;5.46;85.68
75497;BME280;64074;47.540;19.072;2023-11-22T02:01:43;100480.31;;;5.41;85.43
75497;BME280;64074;47.540;19.072;2023-11-22T02:05:08;100482.97;;;5.36;85.35
75497;BME280;64074;47.540;19.072;2023-11-22T02:08:18;100495.09;;;5.39;84.74
75497;BME280;64074;47.540;19.072;2023-11-22T02:11:33;100491.28;;;5.35;84.40
75497;BME280;64074;47.540;19.072;2023-11-22T02:15:01;100494.56;;;5.10;84.75
75497;BME280;64074;47.540;19.072;2023-11-22T02:18:17;100501.66;;;4.94;84.78
75497;BME280;64074;47.540;19.072;2023-11-22T02:21:27;100502.56;;;5.00;84.75
75497;BME280;64074;47.540;19.072;2023-11-22T02:24:38;100507.81;;;4.89;84.51
75497;BME280;64074;47.540;19.072;2023-11-22T02:27:55;100514.19;;;4.83;84.84
75497;BME280;64074;47.540;19.072;2023-11-22T02:31:07;100508.56;;;4.85;84.59
75497;BME280;64074;47.540;19.072;2023-11-22T02:34:25;100510.88;;;4.71;84.57
75497;BME280;64074;47.540;19.072;2023-11-22T02:37:42;100515.81;;;4.84;84.90
75497;BME280;64074;47.540;19.072;2023-11-22T02:41:07;100508.81;;;4.83;84.59
75497;BME280;64074;47.540;19.072;2023-11-22T02:44:36;100517.66;;;4.79;85.30
75497;BME280;64074;47.540;19.072;2023-11-22T02:47:57;100519.94;;;4.70;85.34
75497;BME280;64074;47.540;19.072;2023-11-22T02:51:21;100523.66;;;4.64;86.12
75497;BME280;64074;47.540;19.072;2023-11-22T02:54:32;100528.16;;;4.58;86.53
75497;BME280;64074;47.540;19.072;2023-11-22T02:57:58;100528.06;;;4.48;87.00
75497;BME280;64074;47.540;19.072;2023-11-22T03:01:22;100529.34;;;4.46;87.24
75497;BME280;64074;47.540;19.072;2023-11-22T03:04:45;100527.53;;;4.51;87.89
75497;BME280;64074;47.540;19.072;2023-11-22T03:08:03;100537.88;;;4.64;87.60
75497;BME280;64074;47.540;19.072;2023-11-22T03:11:15;100545.38;;;4.62;87.24
75497;BME280;64074;47.540;19.072;2023-11-22T03:14:26;100549.44;;;4.43;87.14
75497;BME280;64074;47.540;19.072;2023-11-22T03:17:32;100548.13;;;4.46;87.46
75497;BME280;64074;47.540;19.072;2023-11-22T03:20:45;100551.47;;;4.53;87.42
75497;BME280;64074;47.540;19.072;2023-11-22T03:23:56;100544.31;;;4.42;87.19
75497;BME280;64074;47.540;19.072;2023-11-22T03:27:34;100555.22;;;4.52;87.22
75497;BME280;64074;47.540;19.072;2023-11-22T03:30:53;100550.69;;;4.36;87.87
75497;BME280;64074;47.540;19.072;2023-11-22T03:34:03;100560.25;;;4.48;87.54
75497;BME280;64074;47.540;19.072;2023-11-22T03:37:17;100566.53;;;4.37;88.48
75497;BME280;64074;47.540;19.072;2023-11-22T03:40:35;100569.13;;;4.49;88.43
75497;BME280;64074;47.540;19.072;2023-11-22T03:43:52;100571.34;;;4.35;88.28
75497;BME280;64074;47.540;19.072;2023-11-22T03:47:15;100575.16;;;4.39;89.19
75497;BME280;64074;47.540;19.072;2023-11-22T03:50:40;100575.31;;;4.49;88.83
75497;BME280;64074;47.540;19.072;2023-11-22T03:54:08;100569.53;;;4.41;89.16
75497;BME280;64074;47.540;19.072;2023-11-22T03:57:25;100581.06;;;4.58;88.73
75497;BME280;64074;47.540;19.072;2023-11-22T04:00:44;100579.44;;;4.57;88.43
75497;BME280;64074;47.540;19.072;2023-11-22T04:04:14;100576.69;;;4.74;88.08
75497;BME280;64074;47.540;19.072;2023-11-22T04:07:31;100583.47;;;4.59;88.04
75497;BME280;64074;47.540;19.072;2023-11-22T04:10:49;100582.41;;;4.60;88.50
75497;BME280;64074;47.540;19.072;2023-11-22T04:14:21;100586.22;;;4.64;88.44
75497;BME280;64074;47.540;19.072;2023-11-22T04:17:49;100606.47;;;4.50;88.20
75497;BME280;64074;47.540;19.072;2023-11-22T04:21:03;100597.53;;;4.67;88.39
75497;BME280;64074;47.540;19.072;2023-11-22T04:24:18;100601.34;;;4.71;87.87
75497;BME280;64074;47.540;19.072;2023-11-22T04:27:28;100600.47;;;4.87;87.34
75497;BME280;64074;47.540;19.072;2023-11-22T04:30:38;100602.97;;;4.72;86.80
75497;BME280;64074;47.540;19.072;2023-11-22T04:34:14;100593.41;;;4.59;86.39
75497;BME280;64074;47.540;19.072;2023-11-22T04:37:38;100602.28;;;4.59;86.75
75497;BME280;64074;47.540;19.072;2023-11-22T04:40:53;100602.34;;;4.64;86.35
75497;BME280;64074;47.540;19.072;2023-11-22T04:44:03;100614.34;;;4.57;86.84
75497;BME280;64074;47.540;19.072;2023-11-22T04:47:07;100614.19;;;4.69;86.31
75497;BME280;64074;47.540;19.072;2023-11-22T04:50:21;100617.38;;;4.66;86.43
75497;BME280;64074;47.540;19.072;2023-11-22T04:53:36;100626.91;;;4.73;86.09
75497;BME280;64074;47.540;19.072;2023-11-22T04:56:45;100625.50;;;4.71;85.69
75497;BME280;64074;47.540;19.072;2023-11-22T04:59:56;100627.63;;;4.69;85.94
75497;BME280;64074;47.540;19.072;2023-11-22T05:03:01;100627.44;;;4.53;86.00
75497;BME280;64074;47.540;19.072;2023-11-22T05:06:12;100622.19;;;4.63;85.97
75497;BME280;64074;47.540;19.072;2023-11-22T05:09:24;100623.53;;;4.44;86.84
75497;BME280;64074;47.540;19.072;2023-11-22T05:12:47;100643.00;;;4.35;87.04
75497;BME280;64074;47.540;19.072;2023-11-22T05:16:17;100652.44;;;4.37;87.50
75497;BME280;64074;47.540;19.072;2023-11-22T05:19:34;100647.56;;;4.51;86.64
75497;BME280;64074;47.540;19.072;2023-11-22T05:22:53;100660.16;;;4.50;86.58
75497;BME280;64074;47.540;19.072;2023-11-22T05:26:18;100663.19;;;4.37;87.20
75497;BME280;64074;47.540;19.072;2023-11-22T05:29:42;100659.22;;;4.06;88.30
75497;BME280;64074;47.540;19.072;2023-11-22T05:33:04;100665.88;;;4.20;87.76
75497;BME280;64074;47.540;19.072;2023-11-22T05:36:13;100663.50;;;3.90;87.94
75497;BME280;64074;47.540;19.072;2023-11-22T05:39:26;100676.22;;;4.12;87.95
75497;BME280;64074;47.540;19.072;2023-11-22T05:42:59;100679.94;;;4.27;86.82
75497;BME280;64074;47.540;19.072;2023-11-22T05:50:19;100697.75;;;4.17;86.68
75497;BME280;64074;47.540;19.072;2023-11-22T05:53:24;100697.25;;;4.20;86.63
75497;BME280;64074;47.540;19.072;2023-11-22T05:56:33;100695.56;;;3.97;86.94
75497;BME280;64074;47.540;19.072;2023-11-22T05:59:40;100701.78;;;3.86;87.60
75497;BME280;64074;47.540;19.072;2023-11-22T06:02:53;100698.88;;;3.87;87.66
75497;BME280;64074;47.540;19.072;2023-11-22T06:06:14;100706.38;;;3.17;90.87
75497;BME280;64074;47.540;19.072;2023-11-22T06:09:27;100706.63;;;3.55;89.68
75497;BME280;64074;47.540;19.072;2023-11-22T06:12:38;100713.84;;;4.00;88.33
75497;BME280;64074;47.540;19.072;2023-11-22T06:15:58;100730.88;;;4.22;87.60
75497;BME280;64074;47.540;19.072;2023-11-22T06:19:33;100734.50;;;4.16;86.99
75497;BME280;64074;47.540;19.072;2023-11-22T06:22:43;100743.63;;;4.32;86.59
75497;BME280;64074;47.540;19.072;2023-11-22T06:25:58;100739.38;;;4.36;86.10
75497;BME280;64074;47.540;19.072;2023-11-22T06:29:03;100751.13;;;4.47;85.66
75497;BME280;64074;47.540;19.072;2023-11-22T06:32:11;100749.31;;;4.52;85.67
75497;BME280;64074;47.540;19.072;2023-11-22T06:35:23;100761.84;;;4.63;85.58
75497;BME280;64074;47.540;19.072;2023-11-22T06:38:37;100772.41;;;4.70;85.57
75497;BME280;64074;47.540;19.072;2023-11-22T06:41:48;100774.38;;;4.75;85.45
75497;BME280;64074;47.540;19.072;2023-11-22T06:45:08;100774.69;;;4.78;85.37
75497;BME280;64074;47.540;19.072;2023-11-22T06:48:31;100781.31;;;4.92;84.51
75497;BME280;64074;47.540;19.072;2023-11-22T06:51:54;100780.88;;;4.79;84.75
75497;BME280;64074;47.540;19.072;2023-11-22T06:55:09;100786.13;;;4.90;84.63
75497;BME280;64074;47.540;19.072;2023-11-22T06:58:44;100786.56;;;4.99;84.72
75497;BME280;64074;47.540;19.072;2023-11-22T07:01:58;100795.63;;;5.15;84.61
75497;BME280;64074;47.540;19.072;2023-11-22T07:05:12;100806.06;;;4.94;85.72
75497;BME280;64074;47.540;19.072;2023-11-22T07:08:51;100810.34;;;5.29;84.44
75497;BME280;64074;47.540;19.072;2023-11-22T07:12:04;100814.72;;;5.35;84.16
75497;BME280;64074;47.540;19.072;2023-11-22T07:15:13;100815.78;;;5.56;84.00
75497;BME280;64074;47.540;19.072;2023-11-22T07:18:25;100814.22;;;5.60;82.96
75497;BME280;64074;47.540;19.072;2023-11-22T07:21:45;100830.06;;;5.56;83.00
75497;BME280;64074;47.540;19.072;2023-11-22T07:25:15;100834.13;;;5.59;83.41
75497;BME280;64074;47.540;19.072;2023-11-22T07:28:50;100833.06;;;5.60;83.09
75497;BME280;64074;47.540;19.072;2023-11-22T07:32:04;100830.84;;;5.96;81.95
75497;BME280;64074;47.540;19.072;2023-11-22T07:35:18;100817.72;;;5.82;81.57
75497;BME280;64074;47.540;19.072;2023-11-22T07:38:49;100822.50;;;5.53;82.37
75497;BME280;64074;47.540;19.072;2023-11-22T07:42:00;100816.16;;;5.65;83.45
75497;BME280;64074;47.540;19.072;2023-11-22T07:45:13;100807.81;;;6.10;82.06
75497;BME280;64074;47.540;19.072;2023-11-22T07:48:42;100821.16;;;6.54;80.06
75497;BME280;64074;47.540;19.072;2023-11-22T07:51:59;100825.50;;;6.28;81.07
75497;BME280;64074;47.540;19.072;2023-11-22T07:55:24;100835.75;;;6.31;81.28
75497;BME280;64074;47.540;19.072;2023-11-22T07:58:50;100851.41;;;6.34;81.63
75497;BME280;64074;47.540;19.072;2023-11-22T08:02:08;100845.50;;;6.10;81.49
75497;BME280;64074;47.540;19.072;2023-11-22T08:05:45;100854.41;;;6.10;82.24
75497;BME280;64074;47.540;19.072;2023-11-22T08:09:05;100853.94;;;6.18;82.34
75497;BME280;64074;47.540;19.072;2023-11-22T08:12:14;100859.56;;;6.17;81.86
75497;BME280;64074;47.540;19.072;2023-11-22T08:15:25;100857.38;;;6.14;81.72
75497;BME280;64074;47.540;19.072;2023-11-22T08:18:48;100870.91;;;6.19;81.26
75497;BME280;64074;47.540;19.072;2023-11-22T08:22:21;100872.56;;;6.20;82.36
75497;BME280;64074;47.540;19.072;2023-11-22T08:25:33;100877.44;;;6.50;81.17
75497;BME280;64074;47.540;19.072;2023-11-22T08:28:53;100874.06;;;6.65;80.18
75497;BME280;64074;47.540;19.072;2023-11-22T08:32:16;100880.94;;;6.83;80.15
75497;BME280;64074;47.540;19.072;2023-11-22T08:35:31;100878.47;;;6.76;79.68
75497;BME280;64074;47.540;19.072;2023-11-22T08:38:54;100883.50;;;6.67;79.75
75497;BME280;64074;47.540;19.072;2023-11-22T08:42:06;100884.91;;;6.70;79.96
75497;BME280;64074;47.540;19.072;2023-11-22T08:45:21;100888.09;;;6.99;80.07
75497;BME280;64074;47.540;19.072;2023-11-22T08:48:41;100883.31;;;7.11;79.34
75497;BME280;64074;47.540;19.072;2023-11-22T08:52:02;100891.66;;;7.09;78.32
75497;BME280;64074;47.540;19.072;2023-11-22T08:55:24;100889.06;;;7.20;78.53
75497;BME280;64074;47.540;19.072;2023-11-22T08:59:06;100892.91;;;7.29;78.06
75497;BME280;64074;47.540;19.072;2023-11-22T09:02:36;100894.19;;;7.21;77.85
75497;BME280;64074;47.540;19.072;2023-11-22T09:05:57;100888.00;;;7.21;78.39
75497;BME280;64074;47.540;19.072;2023-11-22T09:09:09;100886.44;;;7.30;78.21
75497;BME280;64074;47.540;19.072;2023-11-22T09:12:32;100891.59;;;7.36;77.46
75497;BME280;64074;47.540;19.072;2023-11-22T09:15:45;100882.50;;;7.48;77.17
75497;BME280;64074;47.540;19.072;2023-11-22T09:19:00;100888.22;;;7.61;77.03
75497;BME280;64074;47.540;19.072;2023-11-22T09:22:17;100901.72;;;7.61;76.78
75497;BME280;64074;47.540;19.072;2023-11-22T09:25:40;100896.41;;;7.77;76.71
75497;BME280;64074;47.540;19.072;2023-11-22T09:29:13;100895.88;;;7.75;75.76
75497;BME280;64074;47.540;19.072;2023-11-22T09:32:30;100908.66;;;7.94;75.68
75497;BME280;64074;47.540;19.072;2023-11-22T09:35:56;100897.06;;;7.99;75.47
75497;BME280;64074;47.540;19.072;2023-11-22T09:39:54;100904.41;;;8.19;75.17
75497;BME280;64074;47.540;19.072;2023-11-22T09:43:09;100903.34;;;8.25;74.53
75497;BME280;64074;47.540;19.072;2023-11-22T09:46:50;100913.94;;;8.42;74.24
75497;BME280;64074;47.540;19.072;2023-11-22T09:53:57;100920.47;;;8.66;72.89
75497;BME280;64074;47.540;19.072;2023-11-22T09:57:24;100914.84;;;8.78;72.86
75497;BME280;64074;47.540;19.072;2023-11-22T10:01:01;100915.66;;;8.93;71.88
75497;BME280;64074;47.540;19.072;2023-11-22T10:04:20;100911.88;;;9.05;71.17
75497;BME280;64074;47.540;19.072;2023-11-22T10:07:34;100909.44;;;9.18;70.83
75497;BME280;64074;47.540;19.072;2023-11-22T10:10:47;100913.78;;;9.19;70.75
75497;BME280;64074;47.540;19.072;2023-11-22T10:14:10;100919.44;;;9.18;69.86
75497;BME280;64074;47.540;19.072;2023-11-22T10:17:33;100914.56;;;9.25;70.08
75497;BME280;64074;47.540;19.072;2023-11-22T10:20:46;100918.06;;;9.31;70.21
75497;BME280;64074;47.540;19.072;2023-11-22T10:24:03;100921.88;;;9.30;70.16
75497;BME280;64074;47.540;19.072;2023-11-22T10:27:16;100922.38;;;9.52;69.11
75497;BME280;64074;47.540;19.072;2023-11-22T10:30:34;100930.75;;;9.61;69.16
75497;BME280;64074;47.540;19.072;2023-11-22T10:34:09;100933.44;;;9.66;68.83
75497;BME280;64074;47.540;19.072;2023-11-22T10:37:44;100944.84;;;9.32;70.07
75497;BME280;64074;47.540;19.072;2023-11-22T10:41:25;100956.22;;;9.09;70.86
75497;BME280;64074;47.540;19.072;2023-11-22T10:44:59;100963.53;;;9.03;70.57
75497;BME280;64074;47.540;19.072;2023-11-22T10:48:30;100968.09;;;8.87;71.50
75497;BME280;64074;47.540;19.072;2023-11-22T10:51:51;100977.88;;;9.04;70.72
75497;BME280;64074;47.540;19.072;2023-11-22T10:55:02;100974.34;;;8.98;71.17
75497;BME280;64074;47.540;19.072;2023-11-22T10:58:21;100972.97;;;8.75;70.65
75497;BME280;64074;47.540;19.072;2023-11-22T11:01:50;100977.50;;;8.59;71.90
75497;BME280;64074;47.540;19.072;2023-11-22T11:05:17;100987.81;;;8.73;70.98
75497;BME280;64074;47.540;19.072;2023-11-22T11:08:34;100993.78;;;8.85;70.92
75497;BME280;64074;47.540;19.072;2023-11-22T11:12:15;100994.88;;;8.84;70.65
75497;BME280;64074;47.540;19.072;2023-11-22T11:15:27;101001.63;;;8.76;70.56
75497;BME280;64074;47.540;19.072;2023-11-22T11:18:55;101005.94;;;8.77;70.76
75497;BME280;64074;47.540;19.072;2023-11-22T11:22:11;101017.56;;;8.83;70.36
75497;BME280;64074;47.540;19.072;2023-11-22T11:25:22;101022.63;;;8.59;70.62
75497;BME280;64074;47.540;19.072;2023-11-22T11:28:47;101021.81;;;8.58;71.62
75497;BME280;64074;47.540;19.072;2023-11-22T11:32:04;101017.78;;;8.56;71.13
75497;BME280;64074;47.540;19.072;2023-11-22T11:35:44;101026.47;;;8.68;70.45
75497;BME280;64074;47.540;19.072;2023-11-22T11:39:07;101028.38;;;8.73;69.29
75497;BME280;64074;47.540;19.072;2023-11-22T11:42:26;101033.81;;;8.88;68.93
75497;BME280;64074;47.540;19.072;2023-11-22T11:45:41;101034.41;;;9.15;67.85
75497;BME280;64074;47.540;19.072;2023-11-22T11:48:57;101034.13;;;9.17;67.19
75497;BME280;64074;47.540;19.072;2023-11-22T11:52:08;101023.78;;;8.83;68.95
75497;BME280;64074;47.540;19.072;2023-11-22T11:55:21;101021.97;;;9.24;68.03
75497;BME280;64074;47.540;19.072;2023-11-22T11:58:44;101024.13;;;9.07;68.24
75497;BME280;64074;47.540;19.072;2023-11-22T12:02:01;101026.56;;;9.04;68.21
75497;BME280;64074;47.540;19.072;2023-11-22T12:05:40;101030.59;;;9.16;68.15
75497;BME280;64074;47.540;19.072;2023-11-22T12:09:27;101033.25;;;8.86;68.50
75497;BME280;64074;47.540;19.072;2023-11-22T12:12:53;101039.53;;;9.02;67.40
75497;BME280;64074;47.540;19.072;2023-11-22T12:16:09;101035.16;;;8.80;68.29
75497;BME280;64074;47.540;19.072;2023-11-22T12:19:25;101052.75;;;8.30;70.45
75497;BME280;64074;47.540;19.072;2023-11-22T12:22:46;101052.25;;;8.33;70.60
75497;BME280;64074;47.540;19.072;2023-11-22T12:25:57;101054.59;;;8.72;69.80
75497;BME280;64074;47.540;19.072;2023-11-22T12:29:06;101052.06;;;8.50;70.80
75497;BME280;64074;47.540;19.072;2023-11-22T12:32:24;101056.06;;;8.38;71.36
75497;BME280;64074;47.540;19.072;2023-11-22T12:35:47;101059.34;;;8.45;71.03
75497;BME280;64074;47.540;19.072;2023-11-22T12:39:02;101059.75;;;8.26;71.70
75497;BME280;64074;47.540;19.072;2023-11-22T12:42:14;101063.00;;;8.23;72.28
75497;BME280;64074;47.540;19.072;2023-11-22T12:45:26;101079.22;;;8.28;72.09
75497;BME280;64074;47.540;19.072;2023-11-22T12:49:05;101093.22;;;8.20;72.50
75497;BME280;64074;47.540;19.072;2023-11-22T12:52:16;101099.22;;;7.90;73.72
75497;BME280;64074;47.540;19.072;2023-11-22T12:55:44;101101.81;;;8.17;72.74
75497;BME280;64074;47.540;19.072;2023-11-22T12:59:12;101100.66;;;8.03;73.66
75497;BME280;64074;47.540;19.072;2023-11-22T13:03:08;101114.06;;;8.30;73.22
75497;BME280;64074;47.540;19.072;2023-11-22T13:06:40;101116.59;;;8.42;72.60
75497;BME280;64074;47.540;19.072;2023-11-22T13:09:54;101109.63;;;8.51;71.90
75497;BME280;64074;47.540;19.072;2023-11-22T13:13:30;101109.81;;;8.34;73.20
75497;BME280;64074;47.540;19.072;2023-11-22T13:16:40;101101.63;;;8.24;73.52
75497;BME280;64074;47.540;19.072;2023-11-22T13:19:52;101113.53;;;7.91;74.48
75497;BME280;64074;47.540;19.072;2023-11-22T13:23:23;101105.06;;;8.14;74.70
75497;BME280;64074;47.540;19.072;2023-11-22T13:26:43;101103.22;;;8.20;74.11
75497;BME280;64074;47.540;19.072;2023-11-22T13:29:58;101100.53;;;8.25;74.24
75497;BME280;64074;47.540;19.072;2023-11-22T13:33:06;101091.47;;;8.41;73.77
75497;BME280;64074;47.540;19.072;2023-11-22T13:36:17;101095.44;;;8.28;74.33
75497;BME280;64074;47.540;19.072;2023-11-22T13:39:35;101089.19;;;8.23;74.14
75497;BME280;64074;47.540;19.072;2023-11-22T13:42:45;101099.22;;;8.27;74.59
75497;BME280;64074;47.540;19.072;2023-11-22T13:45:55;101112.13;;;8.20;74.56
75497;BME280;64074;47.540;19.072;2023-11-22T13:49:04;101107.75;;;8.14;74.54
75497;BME280;64074;47.540;19.072;2023-11-22T13:52:16;101116.94;;;8.13;74.85
75497;BME280;64074;47.540;19.072;2023-11-22T13:55:30;101131.78;;;8.11;74.49
75497;BME280;64074;47.540;19.072;2023-11-22T13:58:48;101143.75;;;8.20;74.39
75497;BME280;64074;47.540;19.072;2023-11-22T14:01:53;101144.56;;;8.20;74.69
75497;BME280;64074;47.540;19.072;2023-11-22T14:05:04;101145.44;;;7.94;74.84
75497;BME280;64074;47.540;19.072;2023-11-22T14:08:16;101149.41;;;8.18;74.54
75497;BME280;64074;47.540;19.072;2023-11-22T14:11:30;101133.47;;;8.22;73.72
75497;BME280;64074;47.540;19.072;2023-11-22T14:15:15;101124.44;;;8.06;74.82
75497;BME280;64074;47.540;19.072;2023-11-22T14:18:22;101114.50;;;8.12;73.93
75497;BME280;64074;47.540;19.072;2023-11-22T14:21:32;101130.25;;;7.88;74.77
75497;BME280;64074;47.540;19.072;2023-11-22T14:24:46;101140.44;;;7.81;75.43
75497;BME280;64074;47.540;19.072;2023-11-22T14:28:10;101153.31;;;8.00;74.66
75497;BME280;64074;47.540;19.072;2023-11-22T14:31:22;101158.34;;;7.92;74.68
75497;BME280;64074;47.540;19.072;2023-11-22T14:34:28;101168.59;;;7.90;75.02
75497;BME280;64074;47.540;19.072;2023-11-22T14:37:36;101165.38;;;7.93;74.48
75497;BME280;64074;47.540;19.072;2023-11-22T14:40:50;101175.06;;;7.89;74.74
75497;BME280;64074;47.540;19.072;2023-11-22T14:43:58;101179.13;;;7.91;74.50
75497;BME280;64074;47.540;19.072;2023-11-22T14:47:08;101188.44;;;7.74;75.32
75497;BME280;64074;47.540;19.072;2023-11-22T14:50:25;101190.38;;;7.78;74.29
75497;BME280;64074;47.540;19.072;2023-11-22T14:53:41;101196.41;;;7.63;74.45
75497;BME280;64074;47.540;19.072;2023-11-22T14:56:54;101191.78;;;7.59;74.33
75497;BME280;64074;47.540;19.072;2023-11-22T15:00:10;101180.34;;;7.74;74.07
75497;BME280;64074;47.540;19.072;2023-11-22T15:03:19;101189.50;;;7.72;73.60
75497;BME280;64074;47.540;19.072;2023-11-22T15:06:28;101199.78;;;7.76;73.90
75497;BME280;64074;47.540;19.072;2023-11-22T15:09:38;101198.03;;;7.64;73.69
75497;BME280;64074;47.540;19.072;2023-11-22T15:12:57;101196.84;;;7.50;73.60
75497;BME280;64074;47.540;19.072;2023-11-22T15:16:14;101203.03;;;7.51;72.86
75497;BME280;64074;47.540;19.072;2023-11-22T15:19:30;101219.53;;;7.54;72.90
75497;BME280;64074;47.540;19.072;2023-11-22T15:22:43;101221.25;;;7.65;72.33
75497;BME280;64074;47.540;19.072;2023-11-22T15:25:55;101207.84;;;7.44;72.74
75497;BME280;64074;47.540;19.072;2023-11-22T15:29:18;101222.06;;;7.39;72.25
75497;BME280;64074;47.540;19.072;2023-11-22T15:32:28;101229.97;;;7.46;72.38
75497;BME280;64074;47.540;19.072;2023-11-22T15:35:37;101228.66;;;7.26;72.31
75497;BME280;64074;47.540;19.072;2023-11-22T15:38:47;101240.13;;;7.38;71.84
75497;BME280;64074;47.540;19.072;2023-11-22T15:42:08;101231.72;;;7.35;71.37
75497;BME280;64074;47.540;19.072;2023-11-22T15:45:26;101244.38;;;7.13;71.23
75497;BME280;64074;47.540;19.072;2023-11-22T15:48:30;101255.47;;;7.16;70.85
75497;BME280;64074;47.540;19.072;2023-11-22T15:51:37;101266.47;;;7.09;69.89
75497;BME280;64074;47.540;19.072;2023-11-22T15:54:52;101271.28;;;7.07;69.72
75497;BME280;64074;47.540;19.072;2023-11-22T15:58:02;101284.19;;;7.05;68.92
75497;BME280;64074;47.540;19.072;2023-11-22T16:01:21;101294.75;;;6.90;70.07
75497;BME280;64074;47.540;19.072;2023-11-22T16:04:55;101296.81;;;6.83;69.69
75497;BME280;64074;47.540;19.072;2023-11-22T16:08:08;101291.75;;;6.87;70.15
75497;BME280;64074;47.540;19.072;2023-11-22T16:11:53;101308.97;;;6.69;70.31
75497;BME280;64074;47.540;19.072;2023-11-22T16:15:30;101310.78;;;6.63;70.48
75497;BME280;64074;47.540;19.072;2023-11-22T16:18:48;101323.78;;;6.50;70.36
75497;BME280;64074;47.540;19.072;2023-11-22T16:22:10;101326.06;;;6.58;70.62
75497;BME280;64074;47.540;19.072;2023-11-22T16:25:20;101326.59;;;6.26;70.63
75497;BME280;64074;47.540;19.072;2023-11-22T16:28:33;101332.84;;;6.15;71.02
75497;BME280;64074;47.540;19.072;2023-11-22T16:31:47;101328.88;;;6.34;71.27
75497;BME280;64074;47.540;19.072;2023-11-22T16:35:03;101335.34;;;6.05;71.93
75497;BME280;64074;47.540;19.072;2023-11-22T16:38:13;101326.47;;;6.04;71.92
75497;BME280;64074;47.540;19.072;2023-11-22T16:41:30;101341.13;;;5.97;71.86
75497;BME280;64074;47.540;19.072;2023-11-22T16:44:44;101354.72;;;5.78;71.92
75497;BME280;64074;47.540;19.072;2023-11-22T16:48:18;101368.38;;;5.88;71.60
75497;BME280;64074;47.540;19.072;2023-11-22T16:51:36;101355.69;;;5.72;71.61
75497;BME280;64074;47.540;19.072;2023-11-22T16:54:55;101368.53;;;5.82;71.09
75497;BME280;64074;47.540;19.072;2023-11-22T16:58:23;101372.41;;;5.74;70.98
75497;BME280;64074;47.540;19.072;2023-11-22T17:01:41;101364.34;;;5.74;71.15
75497;BME280;64074;47.540;19.072;2023-11-22T17:04:49;101384.28;;;5.27;72.64
75497;BME280;64074;47.540;19.072;2023-11-22T17:07:57;101361.13;;;5.49;71.87
75497;BME280;64074;47.540;19.072;2023-11-22T17:11:06;101367.66;;;5.30;72.23
75497;BME280;64074;47.540;19.072;2023-11-22T17:14:10;101364.97;;;5.41;71.33
75497;BME280;64074;47.540;19.072;2023-11-22T17:17:21;101375.75;;;5.30;71.64
75497;BME280;64074;47.540;19.072;2023-11-22T17:20:37;101376.78;;;5.40;71.23
75497;BME280;64074;47.540;19.072;2023-11-22T17:24:04;101385.91;;;5.28;71.34
75497;BME280;64074;47.540;19.072;2023-11-22T17:27:24;101396.41;;;5.17;71.42